createdAt,value
2018-04-10T00:02:14.459Z,61.80
2018-04-10T00:04:42.898Z,64.40
2018-04-10T00:07:11.305Z,67.53
2018-04-10T00:09:39.718Z,64.85
2018-04-10T00:12:07.643Z,67.65
2018-04-10T00:14:36.029Z,64.28
2018-04-10T00:17:04.823Z,65.65
2018-04-10T00:19:33.292Z,67.15
2018-04-10T00:22:01.755Z,64.35
2018-04-10T00:24:30.205Z,62.50
2018-04-10T00:26:59.624Z,61.42
2018-04-10T00:29:28.155Z,60.40
2018-04-10T00:31:56.772Z,63.67
2018-04-10T00:34:25.414Z,59.38
2018-04-10T00:36:54.007Z,66.45
2018-04-10T00:39:22.491Z,66.30
2018-04-10T00:41:50.895Z,65.43
2018-04-10T00:44:19.459Z,68.28
2018-04-10T00:46:47.852Z,62.70
2018-04-10T00:49:16.212Z,66.28
2018-04-10T00:51:44.716Z,62.45
2018-04-10T00:54:13.140Z,64.45
2018-04-10T00:56:41.603Z,59.38
2018-04-10T00:59:10.104Z,57.58
2018-04-10T01:01:38.912Z,56.70
2018-04-10T01:04:07.432Z,57.60
2018-04-10T01:06:35.975Z,59.72
2018-04-10T01:09:04.541Z,61.83
2018-04-10T01:11:33.293Z,60.20
2018-04-10T01:14:02.548Z,62.95
2018-04-10T01:16:31.140Z,57.33
2018-04-10T01:18:59.812Z,54.63
2018-04-10T01:21:28.557Z,61.63
2018-04-10T01:23:57.200Z,59.15
2018-04-10T01:26:25.609Z,54.25
2018-04-10T01:28:54.310Z,57.97
2018-04-10T01:31:22.697Z,52.65
2018-04-10T01:33:51.239Z,52.10
2018-04-10T01:36:20.821Z,51.45
2018-04-10T01:38:49.240Z,48.45
2018-04-10T01:41:17.732Z,48.30
2018-04-10T01:43:46.162Z,51.80
2018-04-10T01:46:14.491Z,46.88
2018-04-10T01:48:42.872Z,46.65
2018-04-10T01:51:11.543Z,48.67
2018-04-10T01:53:40.040Z,45.45
2018-04-10T01:56:08.436Z,48.35
2018-04-10T01:58:37.360Z,43.58
2018-04-10T02:01:06.201Z,42.75
2018-04-10T02:03:34.626Z,45.03
2018-04-10T02:06:03.042Z,41.85
2018-04-10T02:08:31.521Z,39.40
2018-04-10T02:11:17.523Z,41.42
2018-04-10T02:13:45.991Z,39.78
2018-04-10T02:16:14.380Z,39.72
2018-04-10T02:18:43.563Z,40.08
2018-04-10T02:21:12.029Z,36.40
2018-04-10T02:23:40.586Z,38.03
2018-04-10T02:26:10.236Z,35.72
2018-04-10T02:28:39.211Z,35.35
2018-04-10T02:31:07.747Z,34.67
2018-04-10T02:33:36.496Z,34.88
2018-04-10T02:36:04.891Z,36.00
2018-04-10T02:38:33.324Z,35.45
2018-04-10T02:41:01.851Z,34.72
2018-04-10T02:43:30.265Z,35.22
2018-04-10T02:45:58.855Z,36.00
2018-04-10T02:48:28.221Z,33.38
2018-04-10T02:50:56.638Z,31.80
2018-04-10T02:53:25.038Z,33.33
2018-04-10T02:55:53.562Z,36.10
2018-04-10T02:58:21.924Z,34.10
2018-04-10T03:00:50.297Z,32.60
2018-04-10T03:03:19.001Z,32.03
2018-04-10T03:05:47.344Z,30.98
2018-04-10T03:08:15.708Z,32.45
2018-04-10T03:10:44.226Z,34.67
2018-04-10T03:13:12.567Z,31.83
2018-04-10T03:15:41.348Z,34.38
2018-04-10T03:18:10.574Z,32.22
2018-04-10T03:20:39.261Z,32.30
2018-04-10T03:23:07.609Z,33.55
2018-04-10T03:25:37.099Z,32.35
2018-04-10T03:28:05.509Z,32.65
2018-04-10T03:30:33.936Z,32.63
2018-04-10T03:33:02.365Z,29.45
2018-04-10T03:35:30.744Z,31.25
2018-04-10T03:37:59.277Z,31.70
2018-04-10T03:40:27.776Z,29.52
2018-04-10T03:42:56.240Z,32.00
2018-04-10T03:45:24.599Z,31.25
2018-04-10T03:47:53.083Z,27.10
2018-04-10T03:50:21.664Z,31.50
2018-04-10T03:52:50.043Z,32.40
2018-04-10T03:55:18.458Z,30.83
2018-04-10T03:57:47.138Z,27.23
2018-04-10T04:00:16.438Z,26.98
2018-04-10T04:02:44.947Z,30.50
2018-04-10T04:05:13.304Z,28.25
2018-04-10T04:07:41.679Z,28.40
2018-04-10T04:10:10.132Z,27.15
2018-04-10T04:12:38.712Z,30.05
2018-04-10T04:15:07.304Z,26.02
2018-04-10T04:17:35.889Z,28.80
2018-04-10T04:20:16.156Z,25.20
2018-04-10T04:22:44.579Z,27.00
2018-04-10T04:25:12.943Z,26.35
2018-04-10T04:27:42.524Z,26.67
2018-04-10T04:30:11.536Z,27.80
2018-04-10T04:32:40.540Z,23.87
2018-04-10T04:35:08.948Z,25.88
2018-04-10T04:37:37.349Z,25.73
2018-04-10T04:40:05.694Z,24.15
2018-04-10T04:42:34.132Z,25.62
2018-04-10T04:45:03.678Z,26.52
2018-04-10T04:47:32.343Z,24.60
2018-04-10T04:50:00.883Z,23.00
2018-04-10T04:52:29.645Z,21.95
2018-04-10T04:54:58.277Z,21.87
2018-04-10T04:57:26.737Z,21.92
2018-04-10T04:59:55.363Z,21.87
2018-04-10T05:02:23.745Z,23.30
2018-04-10T05:04:52.113Z,21.37
2018-04-10T05:07:21.244Z,23.45
2018-04-10T05:09:49.761Z,19.20
2018-04-10T05:12:18.216Z,23.38
2018-04-10T05:14:46.623Z,22.30
2018-04-10T05:17:14.992Z,22.10
2018-04-10T05:19:43.435Z,23.25
2018-04-10T05:22:11.932Z,22.83
2018-04-10T05:24:40.292Z,25.83
2018-04-10T05:27:09.964Z,24.75
2018-04-10T05:29:38.979Z,22.98
2018-04-10T05:32:07.420Z,22.35
2018-04-10T05:34:36.008Z,20.45
2018-04-10T05:37:04.517Z,23.27
2018-04-10T05:39:32.919Z,22.27
2018-04-10T05:42:01.395Z,22.33
2018-04-10T05:44:30.142Z,22.75
2018-04-10T05:46:58.541Z,23.25
2018-04-10T05:49:27.690Z,23.23
2018-04-10T05:51:56.332Z,21.92
2018-04-10T05:54:24.718Z,22.95
2018-04-10T05:56:53.181Z,23.30
2018-04-10T05:59:21.862Z,23.15
2018-04-10T06:01:50.291Z,25.33
2018-04-10T06:04:18.731Z,24.23
2018-04-10T06:06:48.622Z,22.85
2018-04-10T06:09:16.981Z,25.05
2018-04-10T06:11:45.441Z,24.65
2018-04-10T06:14:14.050Z,25.10
2018-04-10T06:16:42.487Z,25.52
2018-04-10T06:19:10.861Z,26.80
2018-04-10T06:21:39.447Z,25.12
2018-04-10T06:24:07.860Z,26.83
2018-04-10T06:26:36.304Z,28.38
2018-04-10T06:29:04.789Z,27.70
2018-04-10T06:31:33.333Z,31.12
2018-04-10T06:34:01.853Z,30.55
2018-04-10T06:36:53.296Z,27.80
2018-04-10T06:39:22.044Z,32.50
2018-04-10T06:41:50.482Z,29.63
2018-04-10T06:44:18.907Z,29.75
2018-04-10T06:46:47.349Z,30.27
2018-04-10T06:49:15.797Z,33.72
2018-04-10T06:51:44.563Z,32.63
2018-04-10T06:54:13.028Z,33.75
2018-04-10T06:56:41.482Z,36.47
2018-04-10T06:59:10.877Z,32.63
2018-04-10T07:01:39.425Z,36.63
2018-04-10T07:04:07.812Z,37.00
2018-04-10T07:06:36.941Z,35.30
2018-04-10T07:09:06.177Z,39.08
2018-04-10T07:11:34.668Z,35.75
2018-04-10T07:14:03.356Z,38.70
2018-04-10T07:16:31.790Z,39.80
2018-04-10T07:19:00.680Z,40.15
2018-04-10T07:21:29.259Z,38.50
2018-04-10T07:23:57.693Z,42.95
2018-04-10T07:26:26.157Z,42.60
2018-04-10T07:28:55.387Z,41.47
2018-04-10T07:31:28.868Z,40.80
2018-04-10T07:33:57.559Z,43.35
2018-04-10T07:36:26.189Z,42.95
2018-04-10T07:38:54.649Z,44.60
2018-04-10T07:41:24.056Z,46.03
2018-04-10T07:43:52.597Z,41.20
2018-04-10T07:46:21.732Z,46.85
2018-04-10T07:48:50.145Z,45.12
2018-04-10T07:51:18.546Z,44.63
2018-04-10T07:53:46.927Z,44.25
2018-04-10T07:56:15.980Z,45.73
2018-04-10T07:58:44.574Z,41.60
2018-04-10T08:01:12.960Z,42.30
2018-04-10T08:03:43.418Z,43.13
2018-04-10T08:06:11.789Z,46.58
2018-04-10T08:08:40.202Z,44.15
2018-04-10T08:11:09.141Z,45.20
2018-04-10T08:13:37.586Z,46.50
2018-04-10T08:16:07.612Z,47.55
2018-04-10T08:18:36.223Z,47.80
2018-04-10T08:21:04.883Z,44.05
2018-04-10T08:23:33.332Z,40.97
2018-04-10T08:26:01.907Z,43.22
2018-04-10T08:28:30.582Z,42.50
2018-04-10T08:30:59.139Z,42.85
2018-04-10T08:33:28.129Z,44.92
2018-04-10T08:35:56.780Z,39.20
2018-04-10T08:38:25.435Z,40.12
2018-04-10T08:40:53.916Z,36.75
2018-04-10T08:43:22.313Z,36.70
2018-04-10T08:45:51.449Z,34.08
2018-04-10T08:48:20.647Z,32.67
2018-04-10T08:50:49.019Z,30.75
2018-04-10T08:53:17.501Z,32.17
2018-04-10T08:55:45.887Z,29.37
2018-04-10T08:58:14.255Z,29.37
2018-04-10T09:00:42.621Z,29.92
2018-04-10T09:03:11.790Z,30.25
2018-04-10T09:05:40.160Z,27.30
2018-04-10T09:08:08.572Z,25.25
2018-04-10T09:10:36.970Z,30.88
2018-04-10T09:13:05.590Z,28.25
2018-04-10T09:15:34.311Z,28.58
2018-04-10T09:18:03.500Z,29.42
2018-04-10T09:20:31.880Z,24.60
2018-04-10T09:23:00.344Z,24.15
2018-04-10T09:25:28.736Z,27.42
2018-04-10T09:27:57.192Z,26.67
2018-04-10T09:30:26.149Z,27.40
2018-04-10T09:32:54.632Z,25.65
2018-04-10T09:35:23.172Z,21.87
2018-04-10T09:37:51.952Z,24.55
2018-04-10T09:40:20.397Z,23.80
2018-04-10T09:42:48.915Z,22.80
2018-04-10T09:45:17.404Z,23.65
2018-04-10T09:47:46.240Z,21.12
2018-04-10T09:50:14.815Z,22.05
2018-04-10T09:52:43.264Z,21.50
2018-04-10T09:55:12.346Z,21.67
2018-04-10T09:57:40.736Z,21.65
2018-04-10T10:00:09.136Z,19.45
2018-04-10T10:02:37.629Z,22.35
2018-04-10T10:05:06.031Z,20.67
2018-04-10T10:07:34.415Z,23.00
2018-04-10T10:10:02.834Z,19.83
2018-04-10T10:12:31.211Z,23.95
2018-04-10T10:14:59.630Z,20.25
2018-04-10T10:17:28.096Z,16.02
2018-04-10T10:19:56.591Z,22.50
2018-04-10T10:22:25.046Z,22.95
2018-04-10T10:24:53.700Z,20.02
2018-04-10T10:27:22.110Z,22.98
2018-04-10T10:29:51.230Z,19.98
2018-04-10T10:32:19.758Z,20.30
2018-04-10T10:34:48.274Z,21.17
2018-04-10T10:37:16.681Z,22.73
2018-04-10T10:39:45.479Z,23.15
2018-04-10T10:42:15.151Z,17.83
2018-04-10T10:44:44.728Z,19.42
2018-04-10T10:47:13.563Z,21.23
2018-04-10T10:49:42.362Z,16.05
2018-04-10T10:52:10.831Z,19.20
2018-04-10T10:54:40.018Z,22.00
2018-04-10T10:57:08.364Z,19.25
2018-04-10T10:59:36.892Z,21.02
2018-04-10T11:02:05.437Z,19.52
2018-04-10T11:04:35.287Z,20.33
2018-04-10T11:07:03.661Z,18.12
2018-04-10T11:09:33.298Z,20.88
2018-04-10T11:12:01.949Z,15.70
2018-04-10T11:14:30.322Z,18.25
2018-04-10T11:16:58.773Z,18.25
2018-04-10T11:19:27.258Z,19.20
2018-04-10T11:21:55.675Z,15.15
2018-04-10T11:24:24.980Z,16.75
2018-04-10T11:26:53.508Z,17.80
2018-04-10T11:29:22.513Z,19.62
2018-04-10T11:31:51.198Z,18.20
2018-04-10T11:34:19.920Z,17.62
2018-04-10T11:36:48.473Z,16.23
2018-04-10T11:39:18.496Z,20.23
2018-04-10T11:41:47.234Z,17.80
2018-04-10T11:44:16.041Z,13.90
2018-04-10T11:46:44.892Z,14.32
2018-04-10T11:49:13.678Z,15.48
2018-04-10T11:51:42.274Z,15.95
2018-04-10T11:54:11.529Z,16.02
2018-04-10T11:56:39.912Z,16.55
2018-04-10T11:59:08.350Z,16.42
2018-04-10T12:01:37.338Z,16.42
2018-04-10T12:04:06.408Z,15.73
2018-04-10T12:06:35.781Z,14.80
2018-04-10T12:09:04.382Z,11.63
2018-04-10T12:11:32.888Z,16.45
2018-04-10T12:14:01.358Z,18.12
2018-04-10T12:16:29.910Z,15.15
2018-04-10T12:18:58.631Z,15.32
2018-04-10T12:21:27.667Z,15.65
2018-04-10T12:23:56.407Z,18.52
2018-04-10T12:26:25.625Z,16.70
2018-04-10T12:28:54.115Z,17.40
2018-04-10T12:31:22.789Z,17.90
2018-04-10T12:33:52.690Z,18.25
2018-04-10T12:36:21.203Z,16.70
2018-04-10T12:38:50.476Z,16.90
2018-04-10T12:41:18.842Z,17.90
2018-04-10T12:43:48.682Z,18.85
2018-04-10T12:46:17.383Z,16.50
2018-04-10T12:48:46.134Z,15.27
2018-04-10T12:51:14.543Z,17.83
2018-04-10T12:53:43.128Z,18.58
2018-04-10T12:56:11.519Z,17.87
2018-04-10T12:58:39.918Z,16.33
2018-04-10T13:01:08.343Z,17.17
2018-04-10T13:03:37.737Z,21.67
2018-04-10T13:06:06.235Z,17.50
2018-04-10T13:08:34.632Z,18.02
2018-04-10T13:11:03.072Z,17.58
2018-04-10T13:13:31.475Z,19.50
2018-04-10T13:16:00.077Z,13.60
2018-04-10T13:18:28.632Z,14.63
2018-04-10T13:20:57.037Z,18.27
2018-04-10T13:23:27.057Z,18.55
2018-04-10T13:25:55.426Z,14.23
2018-04-10T13:28:23.908Z,15.98
2018-04-10T13:30:52.912Z,14.10
2018-04-10T13:33:21.331Z,16.92
2018-04-10T13:35:49.861Z,19.25
2018-04-10T13:38:19.771Z,13.48
2018-04-10T13:40:48.666Z,17.35
2018-04-10T13:43:17.313Z,16.98
2018-04-10T13:45:47.713Z,16.90
2018-04-10T13:48:16.329Z,17.75
2018-04-10T13:50:44.807Z,16.67
2018-04-10T13:53:13.179Z,17.20
2018-04-10T13:55:41.586Z,16.73
2018-04-10T13:58:10.141Z,14.50
2018-04-10T14:00:38.670Z,14.40
2018-04-10T14:03:07.152Z,17.80
2018-04-10T14:05:35.534Z,18.80
2018-04-10T14:08:03.939Z,13.07
2018-04-10T14:10:32.348Z,16.52
2018-04-10T14:13:00.933Z,14.30
2018-04-10T14:15:29.930Z,18.08
2018-04-10T14:17:58.334Z,17.12
2018-04-10T14:20:26.862Z,16.65
2018-04-10T14:22:55.710Z,15.15
2018-04-10T14:25:24.237Z,15.88
2018-04-10T14:27:53.047Z,14.87
2018-04-10T14:30:21.566Z,17.87
2018-04-10T14:32:50.108Z,17.20
2018-04-10T14:35:18.597Z,14.50
2018-04-10T14:37:47.692Z,14.18
2018-04-10T14:40:16.215Z,14.93
2018-04-10T14:42:45.187Z,16.05
2018-04-10T14:45:14.160Z,14.25
2018-04-10T14:47:42.555Z,15.23
2018-04-10T14:50:10.923Z,15.90
2018-04-10T14:52:39.885Z,16.02
2018-04-10T14:55:08.271Z,13.18
2018-04-10T14:57:36.705Z,17.50
2018-04-10T15:00:05.054Z,16.02
2018-04-10T15:02:33.540Z,15.07
2018-04-10T15:05:02.931Z,16.65
2018-04-10T15:07:32.218Z,16.65
2018-04-10T15:10:00.574Z,16.83
2018-04-10T15:12:30.113Z,15.75
2018-04-10T15:14:59.058Z,16.00
2018-04-10T15:17:27.633Z,16.62
2018-04-10T15:19:56.272Z,14.50
2018-04-10T15:22:24.708Z,15.77
2018-04-10T15:24:53.172Z,12.75
2018-04-10T15:27:21.618Z,13.85
2018-04-10T15:29:50.386Z,10.57
2018-04-10T15:32:19.004Z,13.75
2018-04-10T15:34:47.488Z,15.30
2018-04-10T15:37:16.728Z,14.48
2018-04-10T15:39:45.368Z,14.20
2018-04-10T15:42:13.883Z,14.13
2018-04-10T15:44:42.291Z,13.90
2018-04-10T15:47:10.731Z,12.50
2018-04-10T15:49:39.114Z,13.98
2018-04-10T15:52:07.586Z,12.85
2018-04-10T15:54:36.206Z,14.52
2018-04-10T15:57:04.719Z,13.60
2018-04-10T15:59:34.051Z,13.62
2018-04-10T16:02:02.556Z,12.75
2018-04-10T16:04:31.156Z,13.38
2018-04-10T16:07:00.068Z,11.50
2018-04-10T16:09:28.632Z,13.35
2018-04-10T16:11:57.094Z,11.12
2018-04-10T16:14:25.914Z,13.25
2018-04-10T16:16:54.641Z,14.60
2018-04-10T16:19:23.425Z,12.52
2018-04-10T16:21:51.988Z,14.32
2018-04-10T16:24:20.439Z,16.17
2018-04-10T16:26:48.871Z,11.50
2018-04-10T16:29:17.640Z,13.23
2018-04-10T16:31:46.645Z,10.63
2018-04-10T16:34:15.269Z,15.30
2018-04-10T16:36:44.861Z,11.75
2018-04-10T16:39:13.292Z,12.93
2018-04-10T16:41:41.721Z,11.90
2018-04-10T16:44:10.303Z,11.00
2018-04-10T16:46:39.707Z,11.65
2018-04-10T16:49:08.162Z,12.98
2018-04-10T16:51:36.739Z,12.52
2018-04-10T16:54:05.151Z,16.35
2018-04-10T16:56:33.903Z,13.93
2018-04-10T16:59:02.579Z,12.40
2018-04-10T17:01:31.161Z,11.73
2018-04-10T17:04:00.022Z,9.85
2018-04-10T17:06:28.529Z,13.60
2018-04-10T17:08:57.070Z,12.07
2018-04-10T17:11:25.903Z,13.55
2018-04-10T17:13:54.588Z,12.60
2018-04-10T17:16:23.143Z,10.25
2018-04-10T17:18:51.700Z,8.57
2018-04-10T17:21:20.242Z,13.02
2018-04-10T17:23:49.446Z,11.35
2018-04-10T17:26:17.857Z,10.38
2018-04-10T17:28:46.851Z,12.68
2018-04-10T17:31:15.845Z,12.35
2018-04-10T17:33:44.311Z,9.85
2018-04-10T17:36:13.156Z,11.07
2018-04-10T17:38:41.497Z,9.57
2018-04-10T17:41:09.892Z,11.05
2018-04-10T17:43:38.549Z,11.50
2018-04-10T17:46:06.938Z,10.25
2018-04-10T17:48:35.328Z,7.53
2018-04-10T17:51:04.256Z,10.68
2018-04-10T17:53:32.683Z,9.38
2018-04-10T17:56:01.184Z,7.62
2018-04-10T17:58:30.530Z,6.87
2018-04-10T18:00:58.980Z,7.85
2018-04-10T18:03:28.240Z,9.55
2018-04-10T18:05:56.828Z,8.48
2018-04-10T18:08:25.991Z,9.10
2018-04-10T18:10:54.916Z,6.10
2018-04-10T18:13:24.432Z,8.40
2018-04-10T18:15:52.977Z,8.05
2018-04-10T18:18:21.887Z,8.20
2018-04-10T18:20:51.077Z,7.87
2018-04-10T18:23:19.668Z,5.90
2018-04-10T18:31:32.362Z,8.13
2018-04-10T18:34:00.891Z,6.15
2018-04-10T18:36:29.791Z,8.02
2018-04-10T18:38:58.378Z,6.45
2018-04-10T18:41:27.158Z,5.47
2018-04-10T18:43:55.583Z,7.75
2018-04-10T18:46:24.632Z,5.90
2018-04-10T18:48:53.713Z,7.00
2018-04-10T18:51:22.246Z,6.60
2018-04-10T18:53:51.548Z,6.20
2018-04-10T18:56:20.652Z,5.10
2018-04-10T18:58:49.598Z,5.82
2018-04-10T19:01:18.777Z,3.78
2018-04-10T19:03:48.859Z,6.07
2018-04-10T19:06:18.309Z,4.57
2018-04-10T19:08:48.150Z,6.50
2018-04-10T19:11:17.264Z,5.65
2018-04-10T19:13:46.124Z,7.07
2018-04-10T19:16:14.584Z,6.68
2018-04-10T19:18:42.977Z,5.80
2018-04-10T19:21:11.388Z,5.80
2018-04-10T19:23:40.228Z,6.15
2018-04-10T19:26:08.596Z,6.18
2018-04-10T19:28:37.231Z,5.10
2018-04-10T19:31:05.703Z,4.00
2018-04-10T19:33:34.162Z,5.60
2018-04-10T19:36:02.550Z,5.75
2018-04-10T19:38:31.900Z,6.40
2018-04-10T19:41:00.309Z,5.90
2018-04-10T19:43:28.828Z,6.00
2018-04-10T19:45:57.478Z,6.50
2018-04-10T19:48:26.142Z,5.25
2018-04-10T19:50:54.679Z,4.97
2018-04-10T19:53:23.762Z,5.25
2018-04-10T19:55:52.924Z,5.15
2018-04-10T19:58:21.476Z,5.50
2018-04-10T20:00:50.576Z,4.55
2018-04-10T20:03:19.238Z,5.22
2018-04-10T20:05:48.042Z,4.50
2018-04-10T20:08:18.491Z,6.03
2018-04-10T20:10:46.987Z,5.85
2018-04-10T20:13:15.588Z,4.72
2018-04-10T20:15:44.457Z,4.82
2018-04-10T20:18:12.905Z,4.97
2018-04-10T20:20:41.262Z,5.07
2018-04-10T20:23:09.693Z,5.85
2018-04-10T20:25:38.068Z,4.15
2018-04-10T20:28:06.456Z,4.75
2018-04-10T20:30:34.855Z,6.60
2018-04-10T20:33:03.972Z,5.40
2018-04-10T20:35:32.352Z,5.15
2018-04-10T20:38:00.781Z,5.80
2018-04-10T20:40:29.161Z,5.90
2018-04-10T20:42:57.591Z,5.50
2018-04-10T20:45:27.252Z,5.55
2018-04-10T20:47:55.678Z,5.40
2018-04-10T20:50:24.063Z,5.03
2018-04-10T20:52:52.558Z,3.58
2018-04-10T20:55:21.538Z,4.72
2018-04-10T20:57:50.219Z,5.07
2018-04-10T21:00:19.215Z,5.28
2018-04-10T21:02:47.753Z,6.80
2018-04-10T21:05:16.295Z,4.25
2018-04-10T21:07:44.795Z,5.40
2018-04-10T21:10:13.458Z,5.45
2018-04-10T21:12:41.824Z,4.20
2018-04-10T21:15:10.228Z,4.72
2018-04-10T21:17:38.595Z,4.18
2018-04-10T21:20:06.980Z,4.68
2018-04-10T21:22:35.370Z,3.42
2018-04-10T21:25:03.715Z,5.20
2018-04-10T21:27:32.500Z,5.60
2018-04-10T21:30:01.316Z,5.53
2018-04-10T21:32:29.865Z,5.62
2018-04-10T21:34:58.250Z,4.95
2018-04-10T21:37:27.439Z,5.00
2018-04-10T21:39:56.053Z,4.75
2018-04-10T21:42:24.760Z,3.50
2018-04-10T21:44:53.262Z,4.00
2018-04-10T21:47:21.850Z,4.72
2018-04-10T21:49:50.502Z,4.65
2018-04-10T21:52:18.935Z,5.60
2018-04-10T21:54:47.358Z,5.05
2018-04-10T21:57:15.777Z,4.47
2018-04-10T21:59:44.204Z,5.00
2018-04-10T22:02:12.768Z,4.87
2018-04-10T22:04:41.107Z,5.20
2018-04-10T22:07:09.594Z,4.95
2018-04-10T22:09:37.971Z,4.82
2018-04-10T22:12:06.396Z,4.47
2018-04-10T22:14:34.756Z,3.37
2018-04-10T22:17:03.174Z,3.97
2018-04-10T22:19:31.748Z,4.70
2018-04-10T22:22:00.268Z,4.30
2018-04-10T22:24:28.663Z,3.58
2018-04-10T22:26:57.144Z,4.03
2018-04-10T22:29:25.645Z,5.12
2018-04-10T22:31:54.098Z,3.00
2018-04-10T22:34:22.755Z,4.80
2018-04-10T22:36:51.993Z,5.57
2018-04-10T22:39:20.748Z,5.20
2018-04-10T22:41:49.228Z,4.65
2018-04-10T22:44:17.689Z,4.70
2018-04-10T22:46:46.085Z,3.50
2018-04-10T22:49:15.337Z,4.43
2018-04-10T22:51:43.813Z,3.60
2018-04-10T22:54:12.189Z,3.95
2018-04-10T22:56:40.549Z,4.78
2018-04-10T22:59:09.234Z,4.75
2018-04-10T23:01:37.708Z,3.45
2018-04-10T23:04:06.035Z,3.50
2018-04-10T23:06:35.157Z,4.82
2018-04-10T23:09:03.626Z,5.00
2018-04-10T23:11:32.128Z,4.35
2018-04-10T23:14:00.589Z,5.87
2018-04-10T23:16:28.942Z,4.60
2018-04-10T23:18:57.308Z,3.70
2018-04-10T23:21:25.750Z,4.50
2018-04-10T23:23:54.175Z,3.67
2018-04-10T23:26:22.525Z,3.50
2018-04-10T23:28:51.800Z,3.75
2018-04-10T23:31:20.192Z,4.25
2018-04-10T23:33:48.833Z,5.03
2018-04-10T23:36:17.367Z,4.07
2018-04-10T23:38:45.725Z,4.30
2018-04-10T23:41:14.068Z,3.97
2018-04-10T23:43:43.012Z,3.83
2018-04-10T23:46:11.406Z,4.22
2018-04-10T23:48:39.753Z,3.55
2018-04-10T23:51:08.331Z,4.53
2018-04-10T23:53:36.693Z,4.43
2018-04-10T23:56:05.051Z,4.15
2018-04-10T23:58:34.100Z,3.95
